sensor_id;sensor_type;location;lat;lon;timestamp;temperature;humidity
1011;DHT22;494;48.744;10.106;2023-05-14T00:00:17;13.90;47.80
1011;DHT22;494;48.744;10.106;2023-05-14T00:02:47;13.80;47.70
1011;DHT22;494;48.744;10.106;2023-05-14T00:05:16;13.80;47.90
1011;DHT22;494;48.744;10.106;2023-05-14T00:07:45;13.80;47.70
1011;DHT22;494;48.744;10.106;2023-05-14T00:10:14;13.80;47.90
1011;DHT22;494;48.744;10.106;2023-05-14T00:12:43;13.80;48.00
1011;DHT22;494;48.744;10.106;2023-05-14T00:15:12;13.80;47.80
1011;DHT22;494;48.744;10.106;2023-05-14T00:17:43;13.80;47.90
1011;DHT22;494;48.744;10.106;2023-05-14T00:20:11;13.90;47.80
1011;DHT22;494;48.744;10.106;2023-05-14T00:22:40;13.90;47.80
1011;DHT22;494;48.744;10.106;2023-05-14T00:25:09;13.90;47.50
1011;DHT22;494;48.744;10.106;2023-05-14T00:27:38;13.90;47.70
1011;DHT22;494;48.744;10.106;2023-05-14T00:30:07;13.90;47.60
1011;DHT22;494;48.744;10.106;2023-05-14T00:32:36;13.90;47.60
1011;DHT22;494;48.744;10.106;2023-05-14T00:35:08;13.90;47.50
1011;DHT22;494;48.744;10.106;2023-05-14T00:37:39;13.90;47.20
1011;DHT22;494;48.744;10.106;2023-05-14T00:40:08;14.00;47.20
1011;DHT22;494;48.744;10.106;2023-05-14T00:42:42;14.00;47.10
1011;DHT22;494;48.744;10.106;2023-05-14T00:45:11;14.00;46.90
1011;DHT22;494;48.744;10.106;2023-05-14T00:47:40;14.00;46.70
1011;DHT22;494;48.744;10.106;2023-05-14T00:50:11;14.00;46.60
1011;DHT22;494;48.744;10.106;2023-05-14T00:52:41;14.00;46.40
1011;DHT22;494;48.744;10.106;2023-05-14T00:55:11;14.00;46.30
1011;DHT22;494;48.744;10.106;2023-05-14T00:57:43;14.00;46.40
1011;DHT22;494;48.744;10.106;2023-05-14T01:00:13;13.90;46.40
1011;DHT22;494;48.744;10.106;2023-05-14T01:02:43;14.00;46.40
1011;DHT22;494;48.744;10.106;2023-05-14T01:05:14;14.00;46.30
1011;DHT22;494;48.744;10.106;2023-05-14T01:07:48;14.10;46.90
1011;DHT22;494;48.744;10.106;2023-05-14T01:10:27;14.10;45.80
1011;DHT22;494;48.744;10.106;2023-05-14T01:13:05;14.00;45.70
1011;DHT22;494;48.744;10.106;2023-05-14T01:15:41;13.90;46.10
1011;DHT22;494;48.744;10.106;2023-05-14T01:18:13;13.90;45.90
1011;DHT22;494;48.744;10.106;2023-05-14T01:20:50;13.90;46.10
1011;DHT22;494;48.744;10.106;2023-05-14T01:23:21;13.90;46.20
1011;DHT22;494;48.744;10.106;2023-05-14T01:25:50;14.00;46.20
1011;DHT22;494;48.744;10.106;2023-05-14T01:28:25;14.10;46.20
1011;DHT22;494;48.744;10.106;2023-05-14T01:31:04;14.10;46.00
1011;DHT22;494;48.744;10.106;2023-05-14T01:33:37;14.10;45.70
1011;DHT22;494;48.744;10.106;2023-05-14T01:36:10;14.00;45.60
1011;DHT22;494;48.744;10.106;2023-05-14T01:38:41;14.00;45.60
1011;DHT22;494;48.744;10.106;2023-05-14T01:41:13;14.00;45.90
1011;DHT22;494;48.744;10.106;2023-05-14T01:43:44;14.00;45.80
1011;DHT22;494;48.744;10.106;2023-05-14T01:46:15;14.00;45.60
1011;DHT22;494;48.744;10.106;2023-05-14T01:48:45;14.00;45.40
1011;DHT22;494;48.744;10.106;2023-05-14T01:51:14;13.90;45.30
1011;DHT22;494;48.744;10.106;2023-05-14T01:53:44;13.90;45.10
1011;DHT22;494;48.744;10.106;2023-05-14T01:56:13;13.80;45.20
1011;DHT22;494;48.744;10.106;2023-05-14T01:58:41;13.70;45.70
1011;DHT22;494;48.744;10.106;2023-05-14T02:01:10;13.60;45.90
1011;DHT22;494;48.744;10.106;2023-05-14T02:03:38;13.60;46.10
1011;DHT22;494;48.744;10.106;2023-05-14T02:06:07;13.50;46.30
1011;DHT22;494;48.744;10.106;2023-05-14T02:08:36;13.50;46.50
1011;DHT22;494;48.744;10.106;2023-05-14T02:11:07;13.40;46.50
1011;DHT22;494;48.744;10.106;2023-05-14T02:13:36;13.50;47.50
1011;DHT22;494;48.744;10.106;2023-05-14T02:16:05;13.50;46.90
1011;DHT22;494;48.744;10.106;2023-05-14T02:18:36;13.50;46.80
1011;DHT22;494;48.744;10.106;2023-05-14T02:21:05;13.50;46.70
1011;DHT22;494;48.744;10.106;2023-05-14T02:23:33;13.60;46.70
1011;DHT22;494;48.744;10.106;2023-05-14T02:26:09;13.60;46.70
1011;DHT22;494;48.744;10.106;2023-05-14T02:28:38;13.70;46.60
1011;DHT22;494;48.744;10.106;2023-05-14T02:31:07;13.60;46.10
1011;DHT22;494;48.744;10.106;2023-05-14T02:33:35;13.60;46.10
1011;DHT22;494;48.744;10.106;2023-05-14T02:36:04;13.40;46.00
1011;DHT22;494;48.744;10.106;2023-05-14T02:38:33;13.40;46.20
1011;DHT22;494;48.744;10.106;2023-05-14T02:41:01;13.40;46.50
1011;DHT22;494;48.744;10.106;2023-05-14T02:43:31;13.30;46.60
1011;DHT22;494;48.744;10.106;2023-05-14T02:46:00;13.40;46.50
1011;DHT22;494;48.744;10.106;2023-05-14T02:48:28;13.40;46.40
1011;DHT22;494;48.744;10.106;2023-05-14T02:50:57;13.50;46.30
1011;DHT22;494;48.744;10.106;2023-05-14T02:53:26;13.50;46.80
1011;DHT22;494;48.744;10.106;2023-05-14T02:55:55;13.50;46.30
1011;DHT22;494;48.744;10.106;2023-05-14T02:58:23;13.50;46.00
1011;DHT22;494;48.744;10.106;2023-05-14T03:00:55;13.40;45.80
1011;DHT22;494;48.744;10.106;2023-05-14T03:03:24;13.20;46.60
1011;DHT22;494;48.744;10.106;2023-05-14T03:05:53;13.20;47.30
1011;DHT22;494;48.744;10.106;2023-05-14T03:08:22;13.20;47.50
1011;DHT22;494;48.744;10.106;2023-05-14T03:10:50;13.30;47.30
1011;DHT22;494;48.744;10.106;2023-05-14T03:13:19;13.40;47.20
1011;DHT22;494;48.744;10.106;2023-05-14T03:15:47;13.40;46.90
1011;DHT22;494;48.744;10.106;2023-05-14T03:18:22;13.50;46.90
1011;DHT22;494;48.744;10.106;2023-05-14T03:20:51;13.50;46.70
1011;DHT22;494;48.744;10.106;2023-05-14T03:23:19;13.50;46.40
1011;DHT22;494;48.744;10.106;2023-05-14T03:25:48;13.60;47.10
1011;DHT22;494;48.744;10.106;2023-05-14T03:28:17;13.60;46.20
1011;DHT22;494;48.744;10.106;2023-05-14T03:30:45;13.60;45.90
1011;DHT22;494;48.744;10.106;2023-05-14T03:33:14;13.60;45.90
1011;DHT22;494;48.744;10.106;2023-05-14T03:35:44;13.50;45.80
1011;DHT22;494;48.744;10.106;2023-05-14T03:38:12;13.40;47.00
1011;DHT22;494;48.744;10.106;2023-05-14T03:40:43;13.30;46.60
1011;DHT22;494;48.744;10.106;2023-05-14T03:43:12;13.30;46.70
1011;DHT22;494;48.744;10.106;2023-05-14T03:45:40;13.30;46.90
1011;DHT22;494;48.744;10.106;2023-05-14T03:48:09;13.40;46.90
1011;DHT22;494;48.744;10.106;2023-05-14T03:50:37;13.40;46.60
1011;DHT22;494;48.744;10.106;2023-05-14T03:53:08;13.40;46.50
1011;DHT22;494;48.744;10.106;2023-05-14T03:55:36;13.40;46.40
1011;DHT22;494;48.744;10.106;2023-05-14T03:58:05;13.40;46.40
1011;DHT22;494;48.744;10.106;2023-05-14T04:00:39;13.40;46.40
1011;DHT22;494;48.744;10.106;2023-05-14T04:03:08;13.50;46.40
1011;DHT22;494;48.744;10.106;2023-05-14T04:05:37;13.50;46.20
1011;DHT22;494;48.744;10.106;2023-05-14T04:08:08;13.50;46.10
1011;DHT22;494;48.744;10.106;2023-05-14T04:10:36;13.50;46.30
1011;DHT22;494;48.744;10.106;2023-05-14T04:13:05;13.40;46.30
1011;DHT22;494;48.744;10.106;2023-05-14T04:15:34;13.50;46.40
1011;DHT22;494;48.744;10.106;2023-05-14T04:18:05;13.50;46.20
1011;DHT22;494;48.744;10.106;2023-05-14T04:20:34;13.50;46.30
1011;DHT22;494;48.744;10.106;2023-05-14T04:23:03;13.60;46.40
1011;DHT22;494;48.744;10.106;2023-05-14T04:25:33;13.70;46.30
1011;DHT22;494;48.744;10.106;2023-05-14T04:28:03;13.60;45.80
1011;DHT22;494;48.744;10.106;2023-05-14T04:30:32;13.50;46.10
1011;DHT22;494;48.744;10.106;2023-05-14T04:33:00;13.50;46.10
1011;DHT22;494;48.744;10.106;2023-05-14T04:35:30;13.50;46.20
1011;DHT22;494;48.744;10.106;2023-05-14T04:37:58;13.60;46.20
1011;DHT22;494;48.744;10.106;2023-05-14T04:40:27;13.60;46.30
1011;DHT22;494;48.744;10.106;2023-05-14T04:42:58;13.60;46.40
1011;DHT22;494;48.744;10.106;2023-05-14T04:45:27;13.70;46.20
1011;DHT22;494;48.744;10.106;2023-05-14T04:47:57;13.70;46.10
1011;DHT22;494;48.744;10.106;2023-05-14T04:50:26;13.80;46.00
1011;DHT22;494;48.744;10.106;2023-05-14T04:52:54;13.80;45.50
1011;DHT22;494;48.744;10.106;2023-05-14T04:55:23;13.80;45.30
1011;DHT22;494;48.744;10.106;2023-05-14T04:57:52;13.80;45.30
1011;DHT22;494;48.744;10.106;2023-05-14T05:00:22;13.80;45.60
1011;DHT22;494;48.744;10.106;2023-05-14T05:02:51;13.70;46.20
1011;DHT22;494;48.744;10.106;2023-05-14T05:05:20;13.70;46.50
1011;DHT22;494;48.744;10.106;2023-05-14T05:07:49;13.70;46.70
1011;DHT22;494;48.744;10.106;2023-05-14T05:10:18;13.70;46.80
1011;DHT22;494;48.744;10.106;2023-05-14T05:12:47;13.80;46.40
1011;DHT22;494;48.744;10.106;2023-05-14T05:15:15;13.80;46.10
1011;DHT22;494;48.744;10.106;2023-05-14T05:17:45;13.90;46.10
1011;DHT22;494;48.744;10.106;2023-05-14T05:20:14;14.00;45.90
1011;DHT22;494;48.744;10.106;2023-05-14T05:22:43;14.00;45.10
1011;DHT22;494;48.744;10.106;2023-05-14T05:25:11;13.90;45.10
1011;DHT22;494;48.744;10.106;2023-05-14T05:27:40;14.00;46.00
1011;DHT22;494;48.744;10.106;2023-05-14T05:30:10;14.10;45.60
1011;DHT22;494;48.744;10.106;2023-05-14T05:32:39;14.00;45.10
1011;DHT22;494;48.744;10.106;2023-05-14T05:35:10;14.10;45.40
1011;DHT22;494;48.744;10.106;2023-05-14T05:37:38;14.20;44.90
1011;DHT22;494;48.744;10.106;2023-05-14T05:40:08;14.30;44.80
1011;DHT22;494;48.744;10.106;2023-05-14T05:42:36;14.50;44.50
1011;DHT22;494;48.744;10.106;2023-05-14T05:45:06;14.60;44.00
1011;DHT22;494;48.744;10.106;2023-05-14T05:47:36;14.60;42.90
1011;DHT22;494;48.744;10.106;2023-05-14T05:50:06;14.70;42.90
1011;DHT22;494;48.744;10.106;2023-05-14T05:52:37;14.70;42.10
1011;DHT22;494;48.744;10.106;2023-05-14T05:55:07;14.80;41.10
1011;DHT22;494;48.744;10.106;2023-05-14T05:57:36;14.80;41.10
1011;DHT22;494;48.744;10.106;2023-05-14T06:00:06;14.80;40.90
1011;DHT22;494;48.744;10.106;2023-05-14T06:02:39;14.90;40.90
1011;DHT22;494;48.744;10.106;2023-05-14T06:05:09;14.90;41.00
1011;DHT22;494;48.744;10.106;2023-05-14T06:07:40;15.00;40.80
1011;DHT22;494;48.744;10.106;2023-05-14T06:10:08;15.00;40.20
1011;DHT22;494;48.744;10.106;2023-05-14T06:12:38;15.10;40.00
1011;DHT22;494;48.744;10.106;2023-05-14T06:15:07;15.20;39.90
1011;DHT22;494;48.744;10.106;2023-05-14T06:17:36;15.30;39.70
1011;DHT22;494;48.744;10.106;2023-05-14T06:20:05;15.30;38.70
1011;DHT22;494;48.744;10.106;2023-05-14T06:22:35;15.40;38.60
1011;DHT22;494;48.744;10.106;2023-05-14T06:25:06;15.50;38.60
1011;DHT22;494;48.744;10.106;2023-05-14T06:27:35;15.50;37.80
1011;DHT22;494;48.744;10.106;2023-05-14T06:30:04;15.50;37.20
1011;DHT22;494;48.744;10.106;2023-05-14T06:32:34;15.60;36.80
1011;DHT22;494;48.744;10.106;2023-05-14T06:35:03;15.80;36.30
1011;DHT22;494;48.744;10.106;2023-05-14T06:37:32;15.90;35.50
1011;DHT22;494;48.744;10.106;2023-05-14T06:40:01;16.00;35.10
1011;DHT22;494;48.744;10.106;2023-05-14T06:42:31;16.10;34.40
1011;DHT22;494;48.744;10.106;2023-05-14T06:45:00;16.10;33.60
1011;DHT22;494;48.744;10.106;2023-05-14T06:47:28;16.00;33.30
1011;DHT22;494;48.744;10.106;2023-05-14T06:49:57;16.00;33.10
1011;DHT22;494;48.744;10.106;2023-05-14T06:52:27;16.10;33.30
1011;DHT22;494;48.744;10.106;2023-05-14T06:54:56;16.10;33.10
1011;DHT22;494;48.744;10.106;2023-05-14T06:57:26;15.90;31.70
1011;DHT22;494;48.744;10.106;2023-05-14T06:59:56;15.70;33.40
1011;DHT22;494;48.744;10.106;2023-05-14T07:02:25;15.60;33.50
1011;DHT22;494;48.744;10.106;2023-05-14T07:04:53;15.70;34.30
1011;DHT22;494;48.744;10.106;2023-05-14T07:07:22;15.60;33.10
1011;DHT22;494;48.744;10.106;2023-05-14T07:09:50;15.40;33.50
1011;DHT22;494;48.744;10.106;2023-05-14T07:12:19;15.50;34.70
1011;DHT22;494;48.744;10.106;2023-05-14T07:14:47;15.60;34.00
1011;DHT22;494;48.744;10.106;2023-05-14T07:17:18;15.60;33.90
1011;DHT22;494;48.744;10.106;2023-05-14T07:19:46;15.80;33.20
1011;DHT22;494;48.744;10.106;2023-05-14T07:22:15;16.00;33.00
1011;DHT22;494;48.744;10.106;2023-05-14T07:24:44;16.20;30.30
1011;DHT22;494;48.744;10.106;2023-05-14T07:27:13;16.20;31.90
1011;DHT22;494;48.744;10.106;2023-05-14T07:29:43;16.40;31.70
1011;DHT22;494;48.744;10.106;2023-05-14T07:32:11;16.50;32.10
1011;DHT22;494;48.744;10.106;2023-05-14T07:34:43;16.60;30.60
1011;DHT22;494;48.744;10.106;2023-05-14T07:37:12;16.70;30.00
1011;DHT22;494;48.744;10.106;2023-05-14T07:39:41;16.80;29.70
1011;DHT22;494;48.744;10.106;2023-05-14T07:42:09;16.90;28.90
1011;DHT22;494;48.744;10.106;2023-05-14T07:44:53;17.00;28.50
1011;DHT22;494;48.744;10.106;2023-05-14T07:47:22;16.90;27.30
1011;DHT22;494;48.744;10.106;2023-05-14T07:49:55;16.90;27.20
1011;DHT22;494;48.744;10.106;2023-05-14T07:52:24;16.90;28.10
1011;DHT22;494;48.744;10.106;2023-05-14T07:54:53;16.90;28.30
1011;DHT22;494;48.744;10.106;2023-05-14T07:57:21;17.00;28.20
1011;DHT22;494;48.744;10.106;2023-05-14T07:59:50;17.00;27.20
1011;DHT22;494;48.744;10.106;2023-05-14T08:02:19;17.00;26.90
1011;DHT22;494;48.744;10.106;2023-05-14T08:04:48;16.90;27.00
1011;DHT22;494;48.744;10.106;2023-05-14T08:07:18;16.80;28.00
1011;DHT22;494;48.744;10.106;2023-05-14T08:09:48;16.70;28.00
1011;DHT22;494;48.744;10.106;2023-05-14T08:12:16;16.70;25.10
1011;DHT22;494;48.744;10.106;2023-05-14T08:14:45;16.80;27.10
1011;DHT22;494;48.744;10.106;2023-05-14T08:17:15;16.90;26.30
1011;DHT22;494;48.744;10.106;2023-05-14T08:19:44;16.90;27.80
1011;DHT22;494;48.744;10.106;2023-05-14T08:22:13;17.00;27.00
1011;DHT22;494;48.744;10.106;2023-05-14T08:24:45;17.10;25.20
1011;DHT22;494;48.744;10.106;2023-05-14T08:27:14;17.30;24.50
1011;DHT22;494;48.744;10.106;2023-05-14T08:29:43;17.30;24.10
1011;DHT22;494;48.744;10.106;2023-05-14T08:32:13;17.50;24.50
1011;DHT22;494;48.744;10.106;2023-05-14T08:34:50;17.70;23.70
1011;DHT22;494;48.744;10.106;2023-05-14T08:37:18;17.80;23.20
1011;DHT22;494;48.744;10.106;2023-05-14T08:39:48;17.90;23.80
1011;DHT22;494;48.744;10.106;2023-05-14T08:42:19;18.00;23.30
1011;DHT22;494;48.744;10.106;2023-05-14T08:44:54;18.10;21.60
1011;DHT22;494;48.744;10.106;2023-05-14T08:47:28;18.00;21.60
1011;DHT22;494;48.744;10.106;2023-05-14T08:50:01;18.00;21.70
1011;DHT22;494;48.744;10.106;2023-05-14T08:52:32;18.00;21.40
1011;DHT22;494;48.744;10.106;2023-05-14T08:55:04;18.00;22.20
1011;DHT22;494;48.744;10.106;2023-05-14T08:57:34;18.10;22.20
1011;DHT22;494;48.744;10.106;2023-05-14T09:00:05;18.20;21.30
1011;DHT22;494;48.744;10.106;2023-05-14T09:02:38;18.20;20.90
1011;DHT22;494;48.744;10.106;2023-05-14T09:05:09;18.20;20.10
1011;DHT22;494;48.744;10.106;2023-05-14T09:07:38;18.10;20.40
1011;DHT22;494;48.744;10.106;2023-05-14T09:10:10;17.90;21.40
1011;DHT22;494;48.744;10.106;2023-05-14T09:12:39;17.80;22.00
1011;DHT22;494;48.744;10.106;2023-05-14T09:15:08;17.70;22.50
1011;DHT22;494;48.744;10.106;2023-05-14T09:17:38;17.50;22.70
1011;DHT22;494;48.744;10.106;2023-05-14T09:20:11;17.50;22.80
1011;DHT22;494;48.744;10.106;2023-05-14T09:22:41;17.40;22.80
1011;DHT22;494;48.744;10.106;2023-05-14T09:25:11;17.40;23.90
1011;DHT22;494;48.744;10.106;2023-05-14T09:27:40;17.40;24.20
1011;DHT22;494;48.744;10.106;2023-05-14T09:30:10;17.40;23.80
1011;DHT22;494;48.744;10.106;2023-05-14T09:32:41;17.40;24.10
1011;DHT22;494;48.744;10.106;2023-05-14T09:35:14;17.50;23.40
1011;DHT22;494;48.744;10.106;2023-05-14T09:37:45;17.50;22.10
1011;DHT22;494;48.744;10.106;2023-05-14T09:40:18;17.70;23.10
1011;DHT22;494;48.744;10.106;2023-05-14T09:42:50;17.90;21.50
1011;DHT22;494;48.744;10.106;2023-05-14T09:45:18;18.10;23.00
1011;DHT22;494;48.744;10.106;2023-05-14T09:47:47;18.40;22.20
1011;DHT22;494;48.744;10.106;2023-05-14T09:50:16;18.80;21.00
1011;DHT22;494;48.744;10.106;2023-05-14T09:52:45;19.40;20.00
1011;DHT22;494;48.744;10.106;2023-05-14T09:55:15;19.80;17.60
1011;DHT22;494;48.744;10.106;2023-05-14T09:57:45;20.10;17.60
1011;DHT22;494;48.744;10.106;2023-05-14T10:00:15;20.20;16.80
1011;DHT22;494;48.744;10.106;2023-05-14T10:02:49;20.20;17.10
1011;DHT22;494;48.744;10.106;2023-05-14T10:05:22;20.30;18.60
1011;DHT22;494;48.744;10.106;2023-05-14T10:07:53;20.50;16.30
1011;DHT22;494;48.744;10.106;2023-05-14T10:10:28;20.50;14.90
1011;DHT22;494;48.744;10.106;2023-05-14T10:13:01;20.60;15.30
1011;DHT22;494;48.744;10.106;2023-05-14T10:15:36;20.60;16.00
1011;DHT22;494;48.744;10.106;2023-05-14T10:18:12;20.70;16.80
1011;DHT22;494;48.744;10.106;2023-05-14T10:20:51;20.80;16.30
1011;DHT22;494;48.744;10.106;2023-05-14T10:23:24;20.70;16.10
1011;DHT22;494;48.744;10.106;2023-05-14T10:25:55;20.90;15.00
1011;DHT22;494;48.744;10.106;2023-05-14T10:28:24;21.10;14.80
1011;DHT22;494;48.744;10.106;2023-05-14T10:30:53;21.10;15.20
1011;DHT22;494;48.744;10.106;2023-05-14T10:33:22;21.20;15.70
1011;DHT22;494;48.744;10.106;2023-05-14T10:35:55;21.30;15.10
1011;DHT22;494;48.744;10.106;2023-05-14T10:38:26;21.40;14.30
1011;DHT22;494;48.744;10.106;2023-05-14T10:40:59;21.70;15.40
1011;DHT22;494;48.744;10.106;2023-05-14T10:43:31;22.20;13.60
1011;DHT22;494;48.744;10.106;2023-05-14T10:46:04;22.50;12.10
1011;DHT22;494;48.744;10.106;2023-05-14T10:48:36;22.60;11.80
1011;DHT22;494;48.744;10.106;2023-05-14T10:51:06;22.50;12.80
1011;DHT22;494;48.744;10.106;2023-05-14T10:53:38;22.40;11.70
1011;DHT22;494;48.744;10.106;2023-05-14T10:56:12;22.20;12.10
1011;DHT22;494;48.744;10.106;2023-05-14T10:58:43;22.10;12.60
1011;DHT22;494;48.744;10.106;2023-05-14T11:01:12;21.90;12.40
1011;DHT22;494;48.744;10.106;2023-05-14T11:03:42;21.70;12.50
1011;DHT22;494;48.744;10.106;2023-05-14T11:06:15;21.60;12.40
1011;DHT22;494;48.744;10.106;2023-05-14T11:08:43;21.30;12.10
1011;DHT22;494;48.744;10.106;2023-05-14T11:11:16;21.30;11.70
1011;DHT22;494;48.744;10.106;2023-05-14T11:13:46;21.50;11.60
1011;DHT22;494;48.744;10.106;2023-05-14T11:16:17;21.50;13.00
1011;DHT22;494;48.744;10.106;2023-05-14T11:19:00;21.80;12.60
1011;DHT22;494;48.744;10.106;2023-05-14T11:21:30;21.30;12.40
1011;DHT22;494;48.744;10.106;2023-05-14T11:24:00;21.00;13.00
1011;DHT22;494;48.744;10.106;2023-05-14T11:26:34;21.00;14.00
1011;DHT22;494;48.744;10.106;2023-05-14T11:29:04;21.00;13.40
1011;DHT22;494;48.744;10.106;2023-05-14T11:31:34;21.10;12.20
1011;DHT22;494;48.744;10.106;2023-05-14T11:34:05;21.20;12.10
1011;DHT22;494;48.744;10.106;2023-05-14T11:36:38;21.20;11.80
1011;DHT22;494;48.744;10.106;2023-05-14T11:39:08;21.50;13.90
1011;DHT22;494;48.744;10.106;2023-05-14T11:41:42;21.90;12.40
1011;DHT22;494;48.744;10.106;2023-05-14T11:44:12;22.10;12.10
1011;DHT22;494;48.744;10.106;2023-05-14T11:46:53;21.70;12.30
1011;DHT22;494;48.744;10.106;2023-05-14T11:49:22;21.50;12.00
1011;DHT22;494;48.744;10.106;2023-05-14T11:51:57;21.10;12.50
1011;DHT22;494;48.744;10.106;2023-05-14T11:54:26;21.10;12.70
1011;DHT22;494;48.744;10.106;2023-05-14T11:57:00;21.10;13.30
1011;DHT22;494;48.744;10.106;2023-05-14T11:59:32;21.10;12.90
1011;DHT22;494;48.744;10.106;2023-05-14T12:02:01;21.30;13.40
1011;DHT22;494;48.744;10.106;2023-05-14T12:04:31;21.50;11.90
1011;DHT22;494;48.744;10.106;2023-05-14T12:07:07;21.60;12.40
1011;DHT22;494;48.744;10.106;2023-05-14T12:09:39;21.40;11.80
1011;DHT22;494;48.744;10.106;2023-05-14T12:12:12;21.30;13.40
1011;DHT22;494;48.744;10.106;2023-05-14T12:14:43;21.40;13.40
1011;DHT22;494;48.744;10.106;2023-05-14T12:17:15;21.30;12.90
1011;DHT22;494;48.744;10.106;2023-05-14T12:19:46;21.00;12.60
1011;DHT22;494;48.744;10.106;2023-05-14T12:22:17;20.70;13.50
1011;DHT22;494;48.744;10.106;2023-05-14T12:24:52;20.50;14.50
1011;DHT22;494;48.744;10.106;2023-05-14T12:27:23;20.50;15.00
1011;DHT22;494;48.744;10.106;2023-05-14T12:29:57;20.30;15.30
1011;DHT22;494;48.744;10.106;2023-05-14T12:32:46;20.00;15.60
1011;DHT22;494;48.744;10.106;2023-05-14T12:35:19;20.00;15.70
1011;DHT22;494;48.744;10.106;2023-05-14T12:37:49;19.70;15.80
1011;DHT22;494;48.744;10.106;2023-05-14T12:40:18;19.70;16.40
1011;DHT22;494;48.744;10.106;2023-05-14T12:42:49;19.50;16.30
1011;DHT22;494;48.744;10.106;2023-05-14T12:45:19;19.60;16.80
1011;DHT22;494;48.744;10.106;2023-05-14T12:47:48;19.70;16.30
1011;DHT22;494;48.744;10.106;2023-05-14T12:50:18;19.60;16.60
1011;DHT22;494;48.744;10.106;2023-05-14T12:52:47;19.50;17.20
1011;DHT22;494;48.744;10.106;2023-05-14T12:55:15;19.30;17.00
1011;DHT22;494;48.744;10.106;2023-05-14T12:57:44;19.20;16.90
1011;DHT22;494;48.744;10.106;2023-05-14T13:00:17;19.20;17.50
1011;DHT22;494;48.744;10.106;2023-05-14T13:02:47;19.30;17.80
1011;DHT22;494;48.744;10.106;2023-05-14T13:05:16;19.30;17.00
1011;DHT22;494;48.744;10.106;2023-05-14T13:07:45;19.10;17.00
1011;DHT22;494;48.744;10.106;2023-05-14T13:10:13;19.10;17.00
1011;DHT22;494;48.744;10.106;2023-05-14T13:12:44;19.20;17.00
1011;DHT22;494;48.744;10.106;2023-05-14T13:15:13;19.20;17.60
1011;DHT22;494;48.744;10.106;2023-05-14T13:17:43;19.30;17.20
1011;DHT22;494;48.744;10.106;2023-05-14T13:20:12;19.20;17.50
1011;DHT22;494;48.744;10.106;2023-05-14T13:22:41;19.20;17.10
1011;DHT22;494;48.744;10.106;2023-05-14T13:25:09;19.20;17.60
1011;DHT22;494;48.744;10.106;2023-05-14T13:27:38;19.30;17.80
1011;DHT22;494;48.744;10.106;2023-05-14T13:30:09;19.10;17.60
1011;DHT22;494;48.744;10.106;2023-05-14T13:32:38;19.20;17.20
1011;DHT22;494;48.744;10.106;2023-05-14T13:35:09;19.50;16.40
1011;DHT22;494;48.744;10.106;2023-05-14T13:37:38;19.50;16.60
1011;DHT22;494;48.744;10.106;2023-05-14T13:40:08;19.50;16.60
1011;DHT22;494;48.744;10.106;2023-05-14T13:42:37;19.60;15.90
1011;DHT22;494;48.744;10.106;2023-05-14T13:45:07;19.40;16.70
1011;DHT22;494;48.744;10.106;2023-05-14T13:47:37;19.30;16.60
1011;DHT22;494;48.744;10.106;2023-05-14T13:50:07;19.40;17.00
1011;DHT22;494;48.744;10.106;2023-05-14T13:52:38;19.40;16.60
1011;DHT22;494;48.744;10.106;2023-05-14T13:55:07;19.20;16.40
1011;DHT22;494;48.744;10.106;2023-05-14T13:57:36;19.10;16.90
1011;DHT22;494;48.744;10.106;2023-05-14T14:00:08;19.10;16.60
1011;DHT22;494;48.744;10.106;2023-05-14T14:02:37;19.00;16.90
1011;DHT22;494;48.744;10.106;2023-05-14T14:05:09;19.00;17.20
1011;DHT22;494;48.744;10.106;2023-05-14T14:07:38;19.20;16.70
1011;DHT22;494;48.744;10.106;2023-05-14T14:10:08;19.30;16.80
1011;DHT22;494;48.744;10.106;2023-05-14T14:12:37;19.50;16.90
1011;DHT22;494;48.744;10.106;2023-05-14T14:15:07;19.70;16.30
1011;DHT22;494;48.744;10.106;2023-05-14T14:17:37;19.80;15.30
1011;DHT22;494;48.744;10.106;2023-05-14T14:20:10;20.10;14.40
1011;DHT22;494;48.744;10.106;2023-05-14T14:22:39;20.30;13.20
1011;DHT22;494;48.744;10.106;2023-05-14T14:25:10;20.50;13.30
1011;DHT22;494;48.744;10.106;2023-05-14T14:27:39;20.70;12.40
1011;DHT22;494;48.744;10.106;2023-05-14T14:30:09;20.90;11.80
1011;DHT22;494;48.744;10.106;2023-05-14T14:32:42;21.60;11.80
1011;DHT22;494;48.744;10.106;2023-05-14T14:35:14;22.50;10.50
1011;DHT22;494;48.744;10.106;2023-05-14T14:37:45;23.10;9.50
1011;DHT22;494;48.744;10.106;2023-05-14T14:40:18;23.10;9.40
1011;DHT22;494;48.744;10.106;2023-05-14T14:42:49;23.40;8.70
1011;DHT22;494;48.744;10.106;2023-05-14T14:45:18;23.50;8.00
1011;DHT22;494;48.744;10.106;2023-05-14T14:47:48;23.40;7.40
1011;DHT22;494;48.744;10.106;2023-05-14T14:50:18;23.20;6.90
1011;DHT22;494;48.744;10.106;2023-05-14T14:52:47;22.80;7.70
1011;DHT22;494;48.744;10.106;2023-05-14T14:55:16;22.50;8.80
1011;DHT22;494;48.744;10.106;2023-05-14T14:57:45;22.50;8.80
1011;DHT22;494;48.744;10.106;2023-05-14T15:00:15;22.40;9.30
1011;DHT22;494;48.744;10.106;2023-05-14T15:02:46;22.50;8.90
1011;DHT22;494;48.744;10.106;2023-05-14T15:05:15;22.80;8.20
1011;DHT22;494;48.744;10.106;2023-05-14T15:07:45;22.50;9.80
1011;DHT22;494;48.744;10.106;2023-05-14T15:10:14;22.20;9.90
1011;DHT22;494;48.744;10.106;2023-05-14T15:12:43;21.90;9.80
1011;DHT22;494;48.744;10.106;2023-05-14T15:15:12;21.40;9.90
1011;DHT22;494;48.744;10.106;2023-05-14T15:17:40;20.90;10.80
1011;DHT22;494;48.744;10.106;2023-05-14T15:20:10;20.70;11.30
1011;DHT22;494;48.744;10.106;2023-05-14T15:22:40;21.00;10.80
1011;DHT22;494;48.744;10.106;2023-05-14T15:25:11;21.40;9.40
1011;DHT22;494;48.744;10.106;2023-05-14T15:27:39;21.30;9.00
1011;DHT22;494;48.744;10.106;2023-05-14T15:30:10;20.90;9.80
1011;DHT22;494;48.744;10.106;2023-05-14T15:32:40;20.40;10.20
1011;DHT22;494;48.744;10.106;2023-05-14T15:35:09;20.20;10.70
1011;DHT22;494;48.744;10.106;2023-05-14T15:37:40;20.30;11.70
1011;DHT22;494;48.744;10.106;2023-05-14T15:40:15;20.40;12.10
1011;DHT22;494;48.744;10.106;2023-05-14T15:42:51;20.70;11.10
1011;DHT22;494;48.744;10.106;2023-05-14T15:45:24;21.40;10.70
1011;DHT22;494;48.744;10.106;2023-05-14T15:47:55;22.20;10.00
1011;DHT22;494;48.744;10.106;2023-05-14T15:50:24;22.90;9.00
1011;DHT22;494;48.744;10.106;2023-05-14T15:52:59;23.30;8.00
1011;DHT22;494;48.744;10.106;2023-05-14T15:55:35;23.80;8.20
1011;DHT22;494;48.744;10.106;2023-05-14T15:58:04;24.20;6.30
1011;DHT22;494;48.744;10.106;2023-05-14T16:00:35;24.40;6.10
1011;DHT22;494;48.744;10.106;2023-05-14T16:03:05;24.60;5.80
1011;DHT22;494;48.744;10.106;2023-05-14T16:05:39;24.60;5.80
1011;DHT22;494;48.744;10.106;2023-05-14T16:08:09;24.90;4.80
1011;DHT22;494;48.744;10.106;2023-05-14T16:10:43;24.80;4.70
1011;DHT22;494;48.744;10.106;2023-05-14T16:13:15;24.80;4.70
1011;DHT22;494;48.744;10.106;2023-05-14T16:15:47;24.80;5.60
1011;DHT22;494;48.744;10.106;2023-05-14T16:18:19;24.70;5.60
1011;DHT22;494;48.744;10.106;2023-05-14T16:20:51;24.40;6.00